Airfield :
LOGIN :

Register | Disclaimer

   EN    FR    IT 

 










Legend :    VFR   Marginal VFR   IFR   Intensive IFR   Very Intensive IFR
Visi :
Ceiling :
>= 8 km
>= 3000ft
5 to 8 km
1000 to 3000 ft
1500m to 5 km
500 to 1000 ft
800 to 1500m
200 to 500 ft
< 800m
< 200 ft
Symbols :   Thunderstorms  Fog  Heavy snow  Heavy precipitations  Wind > 20 kt
SIGMETs :     Misc.  Thunderstorms  Icing  Turbulence  Mountain Waves  Volcanic Ashes






- Airport Elevation : 75 ft
- IATA code : MRH


EGYM - RAF Marham

CURRENT METAR :
  • 021320Z 02004KT 7000 VCSH SCT015 BKN027 ///120 07/06 Q1026 TEMPO 4000 SHRA SCT012 RMK WHT TEMPO GRN

EXPIRED METARs :
  • 021250Z 08006KT 4000 -RA FEW010 SCT015 BKN030 08/06 Q1026 TEMPO SCT012 RMK GRN TEMPO GRN
  • 021220Z 06005KT 8000 VCSH FEW010 SCT024 BKN060 08/06 Q1026 BECMG 9999 NSW SCT035 RMK WHT BECMG BLU
  • 021150Z 06005KT 8000 VCSH FEW010 BKN024 ///160 07/06 Q1026 BECMG 9999 NSW SCT035 RMK WHT BECMG BLU
  • 021120Z 03006KT 7000 HZ FEW010 BKN025 BKN160 07/07 Q1026 BECMG 9999 NSW SCT035 RMK WHT BECMG BLU
  • 021050Z 03005KT 7000 FEW025 BKN045 BKN160 07/07 Q1026 BECMG 9999 NSW SCT035 RMK WHT BECMG BLU

TAF AMD TAF EGYM
Valid from the 02 at 12:00 until the 02 at 18:00 UTC


021254Z 0212/0218 05005KT 9999 SCT035
PROB30
TEMPO 0212/0218 4000 SHRA SCT012 BKN020



MET'MAP, your aeronautical weather chart ! - Copyright ORBIFLY December 2007 - Disclaimer

ORBIFLY MET'MAP TEAM :

Programming & Development : Alexandra Zaïnal
Original concept : Baudouin d'Aumeries
Technical & hardware support : Manuel Goepfert
Assistance : Marc-Olivier Méhu




SOURCES & CREDITS :

   NOAA